Time;durP1;ratioP1;P1;durP2;ratioP2;P2;SDS_P1;SDS_P2;PMS_P1;PMS_P2;Temp;Humidity;BMP_temperature;BMP_pressure;BME280_temperature;BME280_humidity;BME280_pressure;Samples;Min_cycle;Max_cycle;Signal;HPM_P1;HPM_P2
2023/07/04 00:00:58;;;;;;;2.87;2.30;;;;;;;15.17;100.00;96757.47;4996645;28;20231;-64
2023/07/04 00:03:26;;;;;;;3.00;2.80;;;;;;;15.10;100.00;96762.88;4995226;28;20270;-63
2023/07/04 00:05:54;;;;;;;2.70;2.43;;;;;;;15.10;100.00;96760.19;4990437;28;20204;-64
2023/07/04 00:08:22;;;;;;;2.90;2.53;;;;;;;15.05;100.00;96752.06;4992018;28;20201;-64
2023/07/04 00:10:51;;;;;;;2.60;2.40;;;;;;;15.13;100.00;96759.75;4990312;28;20396;-64
2023/07/04 00:13:19;;;;;;;2.80;2.70;;;;;;;15.14;100.00;96756.03;4991557;28;20200;-64
2023/07/04 00:15:48;;;;;;;3.60;2.70;;;;;;;15.23;100.00;96759.22;4998316;28;20205;-65
2023/07/04 00:18:20;;;;;;;3.27;2.67;;;;;;;15.24;100.00;96755.50;5001891;28;20674;-63
2023/07/04 00:20:54;;;;;;;3.23;3.03;;;;;;;15.25;100.00;96743.00;4992003;28;20234;-64
2023/07/04 00:23:22;;;;;;;2.90;2.70;;;;;;;15.16;100.00;96745.16;4992543;28;20212;-64
2023/07/04 00:25:50;;;;;;;3.30;3.00;;;;;;;15.16;100.00;96742.50;4996355;28;20267;-64
2023/07/04 00:28:17;;;;;;;3.07;2.87;;;;;;;15.16;100.00;96742.50;5000251;28;20237;-65
2023/07/04 00:30:45;;;;;;;3.20;2.77;;;;;;;15.18;100.00;96738.56;4993778;28;20388;-63
2023/07/04 00:33:16;;;;;;;4.03;3.10;;;;;;;15.10;100.00;96740.72;4998396;28;20592;-63
2023/07/04 00:35:45;;;;;;;3.00;2.87;;;;;;;15.04;100.00;96723.75;5001087;28;20205;-65
2023/07/04 00:38:13;;;;;;;3.63;3.23;;;;;;;15.02;100.00;96726.66;4997465;28;20313;-64
2023/07/04 00:40:41;;;;;;;2.87;2.63;;;;;;;14.95;100.00;96727.75;4993271;28;20268;-63
2023/07/04 00:43:12;;;;;;;2.93;2.73;;;;;;;14.95;100.00;96730.44;4988451;28;20212;-64
2023/07/04 00:45:43;;;;;;;3.20;2.90;;;;;;;14.96;100.00;96724.84;4999075;28;20193;-64
2023/07/04 00:48:12;;;;;;;3.30;3.10;;;;;;;14.89;100.00;96724.13;4999156;28;20936;-64
2023/07/04 00:50:43;;;;;;;2.73;2.63;;;;;;;14.80;100.00;96726.28;4991383;28;20271;-64
2023/07/04 00:53:14;;;;;;;2.70;2.50;;;;;;;14.83;100.00;96731.19;4999317;28;20255;-64
2023/07/04 00:55:44;;;;;;;3.03;2.73;;;;;;;14.84;100.00;96732.81;4996962;28;20216;-64
2023/07/04 00:58:11;;;;;;;2.90;2.40;;;;;;;14.85;100.00;96728.28;4992530;28;20294;-64
2023/07/04 01:00:39;;;;;;;3.57;3.27;;;;;;;14.84;100.00;96735.47;4998838;28;20228;-64
2023/07/04 01:03:10;;;;;;;4.10;2.93;;;;;;;14.92;100.00;96737.00;4998432;28;20202;-64
2023/07/04 01:05:43;;;;;;;3.27;3.00;;;;;;;14.96;100.00;96743.53;4993639;28;20209;-63
2023/07/04 01:08:13;;;;;;;3.97;2.83;;;;;;;14.97;100.00;96741.69;4992679;28;20727;-64
2023/07/04 01:10:43;;;;;;;3.10;2.90;;;;;;;15.00;100.00;96742.06;4997677;28;20409;-64
2023/07/04 01:13:28;;;;;;;2.97;2.70;;;;;;;14.94;100.00;96748.25;4993492;28;20233;-63
2023/07/04 01:15:56;;;;;;;3.83;3.53;;;;;;;14.90;100.00;96749.75;4997139;28;20704;-64
2023/07/04 01:18:24;;;;;;;3.40;3.20;;;;;;;14.88;100.00;96741.16;4996798;28;20217;-64
2023/07/04 01:20:53;;;;;;;2.97;2.70;;;;;;;14.75;100.00;96747.44;4999450;28;20248;-65
2023/07/04 01:23:28;;;;;;;3.07;2.80;;;;;;;14.70;100.00;96750.78;4994428;28;20889;-64
2023/07/04 01:26:04;;;;;;;2.60;2.50;;;;;;;14.72;100.00;96748.72;4988923;28;20808;-63
2023/07/04 01:28:33;;;;;;;3.57;2.93;;;;;;;14.69;100.00;96748.31;4999116;28;20307;-64
2023/07/04 01:31:01;;;;;;;2.93;2.73;;;;;;;14.66;100.00;96748.75;4996003;28;20320;-64
2023/07/04 01:33:28;;;;;;;3.37;3.17;;;;;;;14.69;100.00;96757.13;4999085;28;20236;-64
2023/07/04 01:35:56;;;;;;;3.07;2.80;;;;;;;14.66;100.00;96744.25;4999322;28;20233;-63
2023/07/04 01:38:24;;;;;;;2.80;2.60;;;;;;;14.81;100.00;96764.41;4993645;28;20233;-63
2023/07/04 01:40:52;;;;;;;2.60;2.40;;;;;;;14.69;100.00;96761.63;4993908;28;20271;-63
2023/07/04 01:43:20;;;;;;;3.13;2.83;;;;;;;14.56;100.00;96770.56;4991414;28;20557;-64
2023/07/04 01:45:49;;;;;;;3.30;3.03;;;;;;;14.41;100.00;96769.06;4999161;28;20217;-64
2023/07/04 01:48:17;;;;;;;2.77;2.57;;;;;;;14.44;100.00;96770.50;4999881;28;20196;-63
2023/07/04 01:50:45;;;;;;;2.90;2.70;;;;;;;14.32;100.00;96775.72;4994755;28;20319;-63
2023/07/04 01:53:13;;;;;;;3.30;3.10;;;;;;;14.35;100.00;96775.28;4992701;28;20296;-64
2023/07/04 01:55:40;;;;;;;2.90;2.70;;;;;;;14.48;100.00;96767.16;4997659;28;20754;-64
2023/07/04 01:58:08;;;;;;;4.10;3.00;;;;;;;14.37;100.00;96778.53;4991246;28;20891;-63
2023/07/04 02:00:36;;;;;;;3.13;2.87;;;;;;;14.28;100.00;96771.88;4999318;28;20228;-63
2023/07/04 02:03:08;;;;;;;3.10;2.87;;;;;;;14.09;100.00;96777.13;4994358;28;20238;-63
2023/07/04 02:05:36;;;;;;;2.83;2.63;;;;;;;14.19;100.00;96769.44;4995451;28;20697;-63
2023/07/04 02:08:04;;;;;;;3.73;3.27;;;;;;;14.16;100.00;96772.56;4989329;28;20208;-64
2023/07/04 02:10:31;;;;;;;2.77;2.57;;;;;;;14.25;100.00;96773.09;4996056;28;20215;-63
2023/07/04 02:12:59;;;;;;;3.97;2.80;;;;;;;14.32;100.00;96771.19;4992573;28;20236;-64
2023/07/04 02:15:27;;;;;;;3.40;3.07;;;;;;;14.40;100.00;96772.78;4992857;28;20240;-65
2023/07/04 02:17:55;;;;;;;2.93;2.60;;;;;;;14.29;100.00;96771.63;4994347;28;20696;-64
2023/07/04 02:20:24;;;;;;;2.40;2.20;;;;;;;14.40;100.00;96778.09;4997450;28;20197;-63
2023/07/04 02:22:51;;;;;;;5.00;3.03;;;;;;;14.40;100.00;96772.78;4990844;28;20201;-64
2023/07/04 02:25:19;;;;;;;3.50;2.80;;;;;;;14.51;100.00;96773.09;4993777;28;20216;-64
2023/07/04 02:27:46;;;;;;;2.80;2.43;;;;;;;14.53;100.00;96779.84;4989935;28;20750;-63
2023/07/04 02:30:14;;;;;;;3.20;3.00;;;;;;;14.53;100.00;96771.84;4995669;28;20193;-64
2023/07/04 02:32:42;;;;;;;2.93;2.57;;;;;;;14.56;100.00;96773.25;4993756;28;20641;-64
2023/07/04 02:35:10;;;;;;;4.60;2.83;;;;;;;14.59;100.00;96770.97;4994963;28;20202;-64
2023/07/04 02:37:39;;;;;;;2.80;2.70;;;;;;;14.66;100.00;96762.91;4993597;28;20259;-64
2023/07/04 02:40:08;;;;;;;3.07;2.87;;;;;;;14.67;100.00;96763.72;4992762;28;21138;-64
2023/07/04 02:42:35;;;;;;;3.10;2.90;;;;;;;14.68;100.00;96766.16;4992020;28;20848;-65
2023/07/04 02:45:03;;;;;;;3.00;2.67;;;;;;;14.70;100.00;96788.13;4998055;28;20268;-62
2023/07/04 02:47:31;;;;;;;4.23;2.93;;;;;;;14.60;100.00;96771.78;4999421;28;20692;-64
2023/07/04 02:49:59;;;;;;;4.63;2.83;;;;;;;14.68;100.00;96774.16;4997136;28;20290;-64
2023/07/04 02:52:27;;;;;;;4.13;3.87;;;;;;;14.69;100.00;96769.63;4992926;28;20410;-63
2023/07/04 02:54:55;;;;;;;3.60;3.30;;;;;;;14.73;100.00;96777.03;4995688;28;20232;-63
2023/07/04 02:57:24;;;;;;;4.03;3.23;;;;;;;14.72;100.00;96771.88;4993731;28;20813;-64
2023/07/04 02:59:52;;;;;;;3.67;2.50;;;;;;;14.62;100.00;96769.72;4996213;28;20227;-63
2023/07/04 03:02:21;;;;;;;3.10;2.80;;;;;;;14.60;100.00;96771.78;4995582;28;20241;-63
2023/07/04 03:04:51;;;;;;;3.13;2.87;;;;;;;14.55;100.00;96769.78;4992987;28;20210;-63
2023/07/04 03:07:19;;;;;;;2.90;2.70;;;;;;;14.48;100.00;96775.16;4991135;28;20225;-63
2023/07/04 03:09:47;;;;;;;3.00;2.80;;;;;;;14.42;100.00;96775.25;4993818;28;20735;-63
2023/07/04 03:12:16;;;;;;;3.73;3.00;;;;;;;14.30;100.00;96783.13;4989753;28;20735;-63
2023/07/04 03:14:44;;;;;;;4.90;3.07;;;;;;;14.17;100.00;96778.72;4994557;28;20209;-63
2023/07/04 03:17:12;;;;;;;3.43;2.97;;;;;;;14.13;100.00;96780.19;4996611;28;20640;-62
2023/07/04 03:19:39;;;;;;;3.13;2.93;;;;;;;14.03;100.00;96778.00;4991026;28;20263;-63
2023/07/04 03:22:07;;;;;;;3.10;2.90;;;;;;;13.89;100.00;96778.09;4990619;28;20229;-63
2023/07/04 03:24:35;;;;;;;5.13;3.47;;;;;;;13.86;100.00;96788.34;4998978;28;20719;-64
2023/07/04 03:27:02;;;;;;;3.27;3.07;;;;;;;13.83;100.00;96786.94;4986328;28;20294;-64
2023/07/04 03:29:31;;;;;;;3.97;3.63;;;;;;;13.76;100.00;96783.47;4996138;28;20477;-63
2023/07/04 03:31:59;;;;;;;3.30;3.10;;;;;;;13.71;100.00;96788.63;4991871;28;20220;-64
2023/07/04 03:34:27;;;;;;;3.67;3.37;;;;;;;13.68;100.00;96791.72;4998610;28;20209;-63
2023/07/04 03:36:54;;;;;;;3.87;3.40;;;;;;;13.59;100.00;96794.66;4995704;28;20224;-62
2023/07/04 03:39:22;;;;;;;3.37;3.07;;;;;;;13.49;100.00;96788.97;4990096;28;20743;-62
2023/07/04 03:41:50;;;;;;;3.27;3.07;;;;;;;13.53;100.00;96798.16;4990901;28;20789;-61
2023/07/04 03:44:17;;;;;;;4.80;3.30;;;;;;;13.51;100.00;96794.91;4995666;28;20201;-62
2023/07/04 03:46:46;;;;;;;3.37;3.07;;;;;;;13.45;100.00;96791.22;4996788;28;20241;-62
2023/07/04 03:49:14;;;;;;;3.53;3.23;;;;;;;13.41;100.00;96792.66;4995964;28;20228;-63
2023/07/04 03:51:42;;;;;;;3.33;3.13;;;;;;;13.41;100.00;96787.31;4994768;28;20229;-61
2023/07/04 03:54:12;;;;;;;3.40;3.20;;;;;;;13.48;100.00;96787.34;5001098;28;20625;-62
2023/07/04 03:56:39;;;;;;;3.83;3.00;;;;;;;13.52;100.00;96785.88;4995428;28;20675;-63
2023/07/04 03:59:07;;;;;;;4.47;3.67;;;;;;;13.54;100.00;96783.81;4998578;28;20240;-63
2023/07/04 04:01:34;;;;;;;3.77;3.20;;;;;;;13.57;100.00;96791.38;4998497;28;20225;-62
2023/07/04 04:04:04;;;;;;;4.27;3.73;;;;;;;13.63;100.00;96789.69;4998314;28;20246;-63
2023/07/04 04:06:31;;;;;;;4.27;3.40;;;;;;;13.73;100.00;96795.38;4999135;28;20263;-62
2023/07/04 04:08:59;;;;;;;3.67;3.37;;;;;;;13.90;100.00;96794.88;4992497;28;20241;-62
2023/07/04 04:11:27;;;;;;;3.87;3.23;;;;;;;14.04;100.00;96795.59;4995757;28;20224;-63
2023/07/04 04:13:55;;;;;;;3.80;3.50;;;;;;;14.18;100.00;96793.66;4999818;28;20223;-62
2023/07/04 04:16:23;;;;;;;5.10;3.33;;;;;;;14.21;100.00;96795.88;5000128;28;20197;-62
2023/07/04 04:18:51;;;;;;;3.87;3.53;;;;;;;14.21;100.00;96800.41;5000744;28;20211;-63
2023/07/04 04:21:20;;;;;;;3.57;3.23;;;;;;;14.27;100.00;96800.34;4990493;28;20255;-63
2023/07/04 04:23:50;;;;;;;3.43;3.23;;;;;;;14.47;100.00;96794.84;4998175;28;20704;-63
2023/07/04 04:26:17;;;;;;;5.50;3.10;;;;;;;14.59;100.00;96789.63;4995317;28;20263;-65
2023/07/04 04:28:45;;;;;;;2.97;2.77;;;;;;;14.69;100.00;96793.63;5001211;28;20241;-63
2023/07/04 04:31:14;;;;;;;3.57;3.30;;;;;;;14.73;100.00;96795.69;4995809;28;20224;-62
2023/07/04 04:33:42;;;;;;;3.17;2.97;;;;;;;14.86;100.00;96802.75;4997978;28;20220;-64
2023/07/04 04:36:10;;;;;;;3.43;3.23;;;;;;;14.99;100.00;96800.97;4998278;28;20297;-63
2023/07/04 04:38:39;;;;;;;2.80;2.60;;;;;;;15.21;100.00;96809.34;4999873;28;20289;-62
2023/07/04 04:41:08;;;;;;;5.70;3.23;;;;;;;15.42;100.00;96809.94;4993733;28;20230;-62
2023/07/04 04:43:35;;;;;;;2.70;2.50;;;;;;;15.72;100.00;96817.13;4995433;28;20215;-63
2023/07/04 04:46:04;;;;;;;4.33;3.13;;;;;;;15.96;100.00;96817.25;4997740;28;20237;-62
2023/07/04 04:48:35;;;;;;;5.37;3.10;;;;;;;16.24;100.00;96824.66;4999659;28;20260;-63
2023/07/04 04:51:07;;;;;;;6.03;3.17;;;;;;;16.24;100.00;96830.00;4991157;28;20221;-62
2023/07/04 04:53:35;;;;;;;2.50;2.30;;;;;;;16.28;100.00;96836.50;4995791;28;20243;-64
2023/07/04 04:56:06;;;;;;;2.90;2.70;;;;;;;16.19;100.00;96830.69;4993791;28;20240;-62
2023/07/04 04:58:33;;;;;;;3.43;3.23;;;;;;;16.12;100.00;96840.69;4995558;28;20596;-63
2023/07/04 05:01:06;;;;;;;3.17;2.90;;;;;;;16.17;100.00;96838.13;4999395;28;20307;-61
2023/07/04 05:03:34;;;;;;;3.50;3.10;;;;;;;16.34;100.00;96840.97;5002190;28;20737;-64
2023/07/04 05:06:02;;;;;;;3.47;3.27;;;;;;;16.51;100.00;96842.16;4996830;28;20204;-62
2023/07/04 05:08:30;;;;;;;2.80;2.60;;;;;;;16.62;100.00;96830.66;4991470;28;20341;-63
2023/07/04 05:11:02;;;;;;;2.80;2.60;;;;;;;16.79;100.00;96833.44;4996757;28;20312;-63
2023/07/04 05:13:31;;;;;;;2.77;2.57;;;;;;;16.94;100.00;96838.34;4995441;28;20217;-64
2023/07/04 05:15:59;;;;;;;3.03;2.70;;;;;;;16.49;100.00;96853.91;4999701;28;20292;-60
2023/07/04 05:18:28;;;;;;;3.00;2.63;;;;;;;16.61;100.00;96855.75;4996603;28;20217;-62
2023/07/04 05:21:03;;;;;;;3.00;2.80;;;;;;;16.61;100.00;96853.09;4988094;28;20225;-64
2023/07/04 05:23:31;;;;;;;4.37;3.07;;;;;;;16.95;100.00;96848.00;4998522;28;20235;-64
2023/07/04 05:26:01;;;;;;;4.03;3.43;;;;;;;17.20;100.00;96841.59;4995949;28;20209;-63
2023/07/04 05:28:28;;;;;;;2.80;2.60;;;;;;;17.88;100.00;96846.44;4991172;28;20869;-63
2023/07/04 05:31:01;;;;;;;5.97;2.80;;;;;;;18.31;100.00;96845.09;4994796;28;20325;-64
2023/07/04 05:33:29;;;;;;;3.03;2.70;;;;;;;18.61;100.00;96838.59;4997341;28;20292;-62
2023/07/04 05:36:08;;;;;;;4.00;3.07;;;;;;;18.89;100.00;96844.91;5001353;28;20843;-64
2023/07/04 05:38:36;;;;;;;3.30;2.80;;;;;;;19.01;100.00;96850.22;4996310;28;20290;-64
2023/07/04 05:41:08;;;;;;;3.47;3.00;;;;;;;18.83;100.00;96859.31;4993332;28;20229;-63
2023/07/04 05:43:36;;;;;;;3.17;2.57;;;;;;;18.44;100.00;96857.38;4995907;28;20224;-62
2023/07/04 05:46:06;;;;;;;3.10;2.90;;;;;;;18.47;100.00;96853.38;4994966;28;20712;-63
2023/07/04 05:48:35;;;;;;;2.60;2.40;;;;;;;18.50;100.00;96855.56;4999902;28;20217;-63
2023/07/04 05:51:04;;;;;;;3.00;2.80;;;;;;;18.45;100.00;96859.00;4997590;28;20755;-64
2023/07/04 05:53:33;;;;;;;3.23;2.73;;;;;;;18.07;100.00;96855.91;4991514;28;20212;-64
2023/07/04 05:56:08;;;;;;;3.20;2.83;;;;;;;17.88;100.00;96854.47;4994627;28;20678;-62
2023/07/04 05:58:36;;;;;;;3.03;2.83;;;;;;;17.68;100.00;96857.56;4996196;28;20502;-63
2023/07/04 06:01:07;;;;;;;3.13;2.83;;;;;;;17.55;100.00;96856.78;4995982;28;20304;-64
2023/07/04 06:03:34;;;;;;;3.33;3.10;;;;;;;17.56;100.00;96861.06;5000168;28;20697;-64
2023/07/04 06:06:03;;;;;;;3.37;3.00;;;;;;;17.87;100.00;96868.91;4996204;28;20259;-64
2023/07/04 06:08:30;;;;;;;3.10;2.90;;;;;;;18.15;100.00;96856.56;4994206;28;20295;-64
2023/07/04 06:10:59;;;;;;;2.80;2.57;;;;;;;18.59;100.00;96855.97;4994979;28;20257;-61
2023/07/04 06:13:27;;;;;;;3.20;2.90;;;;;;;18.63;100.00;96859.81;4992248;28;20241;-63
2023/07/04 06:15:55;;;;;;;3.47;2.60;;;;;;;18.69;100.00;96861.50;4995453;28;20248;-64
2023/07/04 06:18:24;;;;;;;3.23;2.93;;;;;;;18.79;100.00;96869.75;4998418;28;20205;-63
2023/07/04 06:20:52;;;;;;;3.50;2.87;;;;;;;18.60;100.00;96857.59;4988954;28;20768;-64
2023/07/04 06:23:21;;;;;;;3.10;2.90;;;;;;;18.44;100.00;96873.47;4993676;28;20710;-63
2023/07/04 06:25:56;;;;;;;4.63;2.90;;;;;;;18.32;100.00;96873.53;4993511;28;20263;-64
2023/07/04 06:28:24;;;;;;;4.33;2.93;;;;;;;18.37;100.00;96872.78;4987165;28;20233;-64
2023/07/04 06:30:51;;;;;;;2.63;2.30;;;;;;;18.10;100.00;96873.41;4996768;28;20791;-63
2023/07/04 06:33:19;;;;;;;3.00;2.60;;;;;;;18.30;100.00;96864.09;4996448;28;20194;-64
2023/07/04 06:35:48;;;;;;;2.80;2.60;;;;;;;18.55;100.00;96876.31;4995527;28;20255;-64
2023/07/04 06:38:16;;;;;;;2.80;2.60;;;;;;;18.68;100.00;96867.94;4988713;28;20241;-63
2023/07/04 06:40:43;;;;;;;2.23;2.03;;;;;;;18.85;100.00;96869.81;4992347;28;20348;-64
2023/07/04 06:43:11;;;;;;;2.40;2.30;;;;;;;18.85;100.00;96875.19;4989210;28;21351;-64
2023/07/04 06:45:39;;;;;;;2.47;2.30;;;;;;;18.99;100.00;96856.91;4997291;28;20888;-64
2023/07/04 06:48:06;;;;;;;2.80;2.60;;;;;;;19.19;100.00;96856.38;4998144;28;20251;-64
2023/07/04 06:50:34;;;;;;;2.67;2.50;;;;;;;19.44;100.00;96863.13;4995315;28;20324;-64
2023/07/04 06:53:03;;;;;;;2.73;2.53;;;;;;;19.66;100.00;96860.44;4991400;28;20229;-63
2023/07/04 06:55:31;;;;;;;3.20;3.00;;;;;;;19.32;100.00;96857.88;4996315;28;20487;-63
2023/07/04 06:57:58;;;;;;;2.90;2.53;;;;;;;19.90;100.00;96860.19;4991726;28;20288;-64
2023/07/04 07:00:26;;;;;;;3.50;2.73;;;;;;;19.72;100.00;96859.47;4999294;28;20948;-64
2023/07/04 07:02:54;;;;;;;3.30;2.70;;;;;;;19.52;100.00;96854.66;4997971;28;20192;-63
2023/07/04 07:05:22;;;;;;;3.20;2.90;;;;;;;19.42;100.00;96852.66;4997263;28;20300;-63
2023/07/04 07:07:52;;;;;;;3.73;3.40;;;;;;;19.49;100.00;96861.34;4989425;28;20208;-63
2023/07/04 07:10:21;;;;;;;3.23;3.03;;;;;;;19.25;100.00;96866.13;4986678;28;20292;-64
2023/07/04 07:12:48;;;;;;;3.30;3.00;;;;;;;18.88;100.00;96862.06;4995122;28;20220;-63
2023/07/04 07:15:16;;;;;;;3.70;3.37;;;;;;;19.20;100.00;96863.38;4996943;28;20680;-62
2023/07/04 07:17:44;;;;;;;3.57;2.90;;;;;;;19.72;100.00;96858.66;4999348;28;20284;-64
2023/07/04 07:20:12;;;;;;;3.37;3.13;;;;;;;19.98;100.00;96861.66;4993533;28;20205;-64
2023/07/04 07:22:39;;;;;;;5.60;3.40;;;;;;;20.32;100.00;96861.47;4991310;28;20287;-64
2023/07/04 07:25:07;;;;;;;3.27;2.93;;;;;;;20.65;100.00;96848.81;4991965;28;20247;-63
2023/07/04 07:27:36;;;;;;;3.70;3.27;;;;;;;21.05;100.00;96849.38;4991985;28;20260;-61
2023/07/04 07:30:05;;;;;;;4.77;3.70;;;;;;;20.84;100.00;96860.03;4997421;28;20731;-63
2023/07/04 07:32:33;;;;;;;3.87;3.50;;;;;;;20.44;100.00;96854.03;4998191;28;20376;-63
2023/07/04 07:35:00;;;;;;;3.90;3.60;;;;;;;20.04;100.00;96858.75;4999035;28;20823;-63
2023/07/04 07:37:28;;;;;;;4.17;3.80;;;;;;;19.72;100.00;96870.22;4989183;28;20201;-64
2023/07/04 07:39:56;;;;;;;6.00;5.40;;;;;;;19.59;100.00;96876.78;4993667;28;20399;-63
2023/07/04 07:42:23;;;;;;;6.70;5.33;;;;;;;19.92;96.77;96871.53;4990944;28;20669;-63
2023/07/04 07:44:52;;;;;;;8.17;7.30;;;;;;;20.51;94.00;96875.34;4995633;28;20272;-64
2023/07/04 07:47:20;;;;;;;6.83;5.60;;;;;;;20.87;82.59;96874.84;4996857;28;20259;-64
2023/07/04 07:49:48;;;;;;;8.67;5.93;;;;;;;20.52;76.20;96874.28;4996450;28;20276;-64
2023/07/04 07:52:15;;;;;;;6.67;5.97;;;;;;;20.18;75.70;96879.88;4991179;28;20257;-63
2023/07/04 07:54:43;;;;;;;7.73;5.77;;;;;;;20.08;83.31;96875.19;4994667;28;20237;-64
2023/07/04 07:57:10;;;;;;;5.67;5.07;;;;;;;19.92;82.79;96874.22;4988744;28;20716;-63
2023/07/04 07:59:38;;;;;;;6.03;5.43;;;;;;;19.89;83.56;96872.00;4995602;28;20209;-63
2023/07/04 08:02:12;;;;;;;9.20;5.40;;;;;;;19.81;83.94;96867.88;4995821;28;20295;-62
2023/07/04 08:04:40;;;;;;;5.57;4.90;;;;;;;19.97;83.19;96876.16;4999339;28;20288;-63
2023/07/04 08:07:08;;;;;;;7.60;4.93;;;;;;;20.49;82.78;96859.44;4991317;28;20873;-63
2023/07/04 08:09:36;;;;;;;6.00;4.97;;;;;;;20.91;80.63;96873.25;4994171;28;20236;-62
2023/07/04 08:12:04;;;;;;;6.90;5.60;;;;;;;20.98;77.49;96859.56;4991297;28;20302;-63
2023/07/04 08:14:32;;;;;;;5.57;5.17;;;;;;;20.61;72.62;96869.22;4994804;28;20743;-64
2023/07/04 08:17:00;;;;;;;6.70;4.90;;;;;;;20.40;74.75;96866.38;4995674;28;20208;-63
2023/07/04 08:19:28;;;;;;;5.87;5.30;;;;;;;20.85;78.42;96864.34;4991261;28;20713;-63
2023/07/04 08:21:56;;;;;;;5.50;5.00;;;;;;;21.32;71.35;96862.72;4990900;28;20304;-64
2023/07/04 08:24:24;;;;;;;6.27;5.43;;;;;;;21.27;70.44;96859.22;4997252;28;20307;-64
2023/07/04 08:26:54;;;;;;;5.20;4.70;;;;;;;21.60;72.03;96866.09;4992037;28;20619;-64
2023/07/04 08:29:22;;;;;;;5.43;4.93;;;;;;;21.39;76.25;96862.50;4994967;28;20292;-64
2023/07/04 08:31:50;;;;;;;5.60;5.07;;;;;;;21.01;75.89;96869.84;4996049;28;20213;-64
2023/07/04 08:34:18;;;;;;;6.27;5.00;;;;;;;20.43;77.72;96863.16;4993933;28;20209;-64
2023/07/04 08:36:47;;;;;;;7.23;5.10;;;;;;;19.85;79.00;96874.38;4989825;28;20788;-63
2023/07/04 08:39:14;;;;;;;7.70;6.03;;;;;;;19.88;81.78;96867.69;4999527;28;20302;-60
2023/07/04 08:41:45;;;;;;;6.57;5.43;;;;;;;20.05;78.26;96870.34;4991900;28;21186;-63
2023/07/04 08:44:16;;;;;;;9.73;6.13;;;;;;;20.35;76.11;96863.63;4993178;28;20237;-64
2023/07/04 08:46:45;;;;;;;8.50;5.60;;;;;;;20.67;74.81;96860.94;4999285;28;20712;-64
2023/07/04 08:49:24;;;;;;;7.03;5.70;;;;;;;21.30;69.81;96872.97;4999712;28;20205;-63
2023/07/04 08:51:58;;;;;;;5.77;5.13;;;;;;;20.87;68.18;96877.53;4992123;28;21350;-63
2023/07/04 08:54:27;;;;;;;7.83;6.47;;;;;;;20.77;70.08;96873.69;4997362;28;20636;-63
2023/07/04 08:56:58;;;;;;;10.43;5.90;;;;;;;20.21;72.95;96869.41;4992076;28;20677;-64
2023/07/04 08:59:37;;;;;;;9.13;5.30;;;;;;;20.82;72.21;96879.13;4996555;28;20259;-64
2023/07/04 09:02:18;;;;;;;5.30;4.80;;;;;;;21.63;68.19;96873.66;4997458;28;20648;-63
2023/07/04 09:04:54;;;;;;;6.60;4.90;;;;;;;22.05;67.98;96876.53;4998049;28;20205;-63
2023/07/04 09:07:27;;;;;;;9.50;5.30;;;;;;;22.48;64.40;96876.38;4994774;28;21481;-64
2023/07/04 09:10:01;;;;;;;6.17;5.57;;;;;;;22.30;63.35;96875.75;4992272;28;20292;-63
2023/07/04 09:12:31;;;;;;;9.10;5.70;;;;;;;21.88;67.46;96882.97;4989764;28;20260;-64
2023/07/04 09:15:06;;;;;;;6.53;4.90;;;;;;;21.59;68.50;96886.06;4997714;28;20267;-63
2023/07/04 09:17:38;;;;;;;6.50;5.80;;;;;;;21.33;65.73;96882.41;4998065;28;20912;-63
2023/07/04 09:20:09;;;;;;;7.47;5.93;;;;;;;21.50;64.18;96879.53;4995962;28;20201;-65
2023/07/04 09:22:38;;;;;;;5.83;5.17;;;;;;;22.02;61.74;96874.38;4993593;28;20709;-64
2023/07/04 09:25:08;;;;;;;5.87;5.27;;;;;;;22.58;61.45;96878.28;4999308;28;20215;-61
2023/07/04 09:27:35;;;;;;;7.40;5.47;;;;;;;22.65;62.81;96878.81;4991817;28;20330;-64
2023/07/04 09:30:04;;;;;;;5.97;5.17;;;;;;;22.70;60.93;96878.81;4997065;28;20232;-64
2023/07/04 09:32:32;;;;;;;6.10;4.97;;;;;;;22.39;60.50;96871.47;4998229;28;20217;-63
2023/07/04 09:35:00;;;;;;;10.00;5.40;;;;;;;22.32;61.53;96886.31;4997103;28;20216;-63
2023/07/04 09:37:29;;;;;;;7.57;6.17;;;;;;;21.75;60.99;96886.97;4991429;28;20902;-64
2023/07/04 09:40:00;;;;;;;8.47;6.13;;;;;;;21.21;63.30;96893.38;4993020;28;22904;-63
2023/07/04 09:42:41;;;;;;;7.70;6.30;;;;;;;21.17;63.34;96895.78;4992799;28;20280;-64
2023/07/04 09:45:23;;;;;;;10.30;7.80;;;;;;;21.23;64.24;96896.63;5000531;28;20687;-64
2023/07/04 09:47:52;;;;;;;8.80;5.93;;;;;;;21.10;63.36;96885.25;4995360;28;22050;-63
2023/07/04 09:50:26;;;;;;;8.43;5.97;;;;;;;21.44;64.46;96883.28;4993037;28;20201;-63
2023/07/04 09:53:02;;;;;;;8.33;6.00;;;;;;;21.57;60.41;96874.72;4999817;28;20282;-63
2023/07/04 09:55:32;;;;;;;5.93;5.33;;;;;;;22.07;60.65;96871.69;4994076;28;20268;-63
2023/07/04 09:58:15;;;;;;;9.53;6.40;;;;;;;22.49;59.36;96859.91;4992366;28;20311;-64
2023/07/04 10:00:44;;;;;;;8.47;7.37;;;;;;;22.66;58.44;96865.03;4998940;28;20217;-62
2023/07/04 10:03:12;;;;;;;7.67;6.77;;;;;;;22.97;56.25;96858.81;4999001;28;20351;-63
2023/07/04 10:05:40;;;;;;;8.07;7.23;;;;;;;23.00;55.07;96855.56;4995968;28;20296;-63
2023/07/04 10:08:11;;;;;;;7.77;6.53;;;;;;;22.80;55.91;96865.28;4991442;28;20609;-64
2023/07/04 10:10:44;;;;;;;8.47;7.70;;;;;;;22.02;53.99;96861.69;4992685;28;20695;-64
2023/07/04 10:13:13;;;;;;;11.73;7.20;;;;;;;21.65;57.03;96857.28;4992027;28;20200;-63
2023/07/04 10:15:43;;;;;;;8.90;8.00;;;;;;;21.18;55.02;96857.00;4996677;28;20251;-64
2023/07/04 10:18:17;;;;;;;9.40;8.47;;;;;;;20.96;54.31;96866.03;4999604;28;20224;-60
2023/07/04 10:20:45;;;;;;;9.60;7.20;;;;;;;21.34;56.17;96855.19;4989420;28;20201;-63
2023/07/04 10:23:12;;;;;;;11.33;8.27;;;;;;;21.67;56.98;96852.44;4993067;28;20286;-63
2023/07/04 10:25:41;;;;;;;11.00;8.03;;;;;;;21.95;54.97;96853.84;4993005;28;20327;-63
2023/07/04 10:28:12;;;;;;;9.20;8.30;;;;;;;22.05;52.55;96858.47;4993073;28;20612;-60
2023/07/04 10:30:41;;;;;;;7.97;7.17;;;;;;;22.15;53.26;96846.06;4994644;28;20237;-64
2023/07/04 10:33:13;;;;;;;10.53;8.00;;;;;;;22.52;53.13;96853.94;5000753;28;20681;-64
2023/07/04 10:35:43;;;;;;;11.17;7.83;;;;;;;22.95;52.26;96853.66;4987189;28;20205;-63
2023/07/04 10:38:22;;;;;;;11.27;7.63;;;;;;;23.41;51.43;96838.44;4995977;28;20228;-62
2023/07/04 10:40:51;;;;;;;11.13;8.30;;;;;;;23.52;50.39;96842.75;4996162;28;20263;-63
2023/07/04 10:43:26;;;;;;;10.60;8.77;;;;;;;23.59;49.57;96847.06;4991178;28;20220;-64
2023/07/04 10:45:54;;;;;;;9.93;8.87;;;;;;;22.69;48.33;96842.09;4998613;28;20231;-63
2023/07/04 10:48:34;;;;;;;9.80;8.80;;;;;;;23.09;52.80;96850.41;4992473;28;20220;-63
2023/07/04 10:51:06;;;;;;;9.73;8.80;;;;;;;23.62;49.25;96838.38;4995659;28;20248;-63
2023/07/04 10:53:34;;;;;;;10.93;9.73;;;;;;;23.73;47.55;96841.84;4992933;28;20240;-63
2023/07/04 10:56:08;;;;;;;11.50;9.37;;;;;;;23.60;47.67;96838.66;4994499;28;20295;-63
2023/07/04 10:58:40;;;;;;;10.73;9.50;;;;;;;23.45;47.14;96825.22;4993095;28;20212;-63
2023/07/04 11:01:12;;;;;;;11.33;10.00;;;;;;;23.75;48.48;96824.25;4995373;28;20260;-63
2023/07/04 11:03:44;;;;;;;11.03;9.03;;;;;;;24.24;46.91;96828.06;4995778;28;20232;-62
2023/07/04 11:06:16;;;;;;;10.37;9.17;;;;;;;24.74;47.31;96801.94;4997095;28;20207;-63
2023/07/04 11:08:44;;;;;;;10.73;9.30;;;;;;;25.01;46.51;96817.69;4992621;28;20344;-62
2023/07/04 11:11:15;;;;;;;9.80;8.87;;;;;;;24.85;44.41;96820.56;4994643;28;20283;-63
2023/07/04 11:13:46;;;;;;;13.07;11.70;;;;;;;24.46;42.43;96832.22;4992191;28;20213;-61
2023/07/04 11:16:14;;;;;;;12.27;11.07;;;;;;;24.39;43.04;96818.19;4995805;28;20213;-62
2023/07/04 11:18:59;;;;;;;12.70;11.40;;;;;;;24.56;44.39;96818.59;4995821;28;20206;-63
2023/07/04 11:21:26;;;;;;;13.40;11.13;;;;;;;24.65;43.95;96815.28;4992814;28;20807;-63
2023/07/04 11:23:56;;;;;;;10.93;9.83;;;;;;;24.99;44.48;96825.28;4990822;28;20679;-63
2023/07/04 11:26:50;;;;;;;10.73;9.70;;;;;;;24.89;42.92;96822.69;4993820;28;20288;-62
2023/07/04 11:29:20;;;;;;;11.63;9.57;;;;;;;24.57;42.79;96816.69;4994771;28;20668;-63
2023/07/04 11:32:16;;;;;;;10.63;9.73;;;;;;;24.44;43.21;96818.19;4997974;28;20267;-65
2023/07/04 11:34:47;;;;;;;10.87;9.50;;;;;;;24.35;43.76;96819.84;4992240;28;20726;-61
2023/07/04 11:37:23;;;;;;;10.07;9.07;;;;;;;24.70;42.67;96817.94;4987373;28;20555;-63